Time;durP1;ratioP1;P1;durP2;ratioP2;P2;SDS_P1;SDS_P2;PMS_P1;PMS_P2;Temp;Humidity;BMP_temperature;BMP_pressure;BME280_temperature;BME280_humidity;BME280_pressure;Samples;Min_cycle;Max_cycle;Signal;HPM_P1;HPM_P2
2023/12/07 00:04:44;;;;;;;12.00;9.07;;;5.50;99.90;;;;;;10375029;28;20583;-77
2023/12/07 00:09:48;;;;;;;10.07;9.07;;;5.60;99.90;;;;;;10379755;28;20219;-78
2023/12/07 00:14:49;;;;;;;9.70;8.80;;;5.60;99.90;;;;;;10380406;28;20219;-79
2023/12/07 00:19:53;;;;;;;8.73;7.93;;;5.70;99.90;;;;;;10376762;28;20694;-78
2023/12/07 00:24:56;;;;;;;8.30;7.50;;;5.70;99.90;;;;;;10377144;28;20309;-79
2023/12/07 00:29:58;;;;;;;9.43;7.57;;;5.70;99.90;;;;;;10378264;28;20223;-79
2023/12/07 00:35:00;;;;;;;8.07;6.90;;;5.70;99.90;;;;;;10390722;28;20222;-79
2023/12/07 00:40:04;;;;;;;8.70;8.00;;;5.70;99.90;;;;;;10377733;28;20195;-78
2023/12/07 00:45:06;;;;;;;8.93;8.03;;;5.70;99.90;;;;;;10378457;28;20246;-79
2023/12/07 00:50:09;;;;;;;8.30;7.57;;;5.80;99.90;;;;;;10375108;28;20548;-79
2023/12/07 00:55:13;;;;;;;7.67;6.87;;;5.80;99.90;;;;;;10373666;28;20746;-79
2023/12/07 01:00:15;;;;;;;8.10;7.30;;;5.80;99.90;;;;;;10375160;28;20265;-79
2023/12/07 01:05:17;;;;;;;8.93;6.70;;;5.90;99.90;;;;;;10377264;28;20261;-79
2023/12/07 01:10:20;;;;;;;7.97;7.20;;;5.90;99.90;;;;;;10376403;28;20227;-78
2023/12/07 01:15:22;;;;;;;7.53;6.93;;;5.90;99.90;;;;;;10374786;28;20230;-78
2023/12/07 01:20:24;;;;;;;7.60;6.77;;;5.90;99.90;;;;;;10369028;28;20692;-81
2023/12/07 01:25:27;;;;;;;7.23;6.53;;;5.80;99.90;;;;;;10375091;28;20218;-81
2023/12/07 01:30:29;;;;;;;6.70;6.10;;;5.80;99.90;;;;;;10375480;28;20265;-81
2023/12/07 01:35:31;;;;;;;6.30;5.80;;;5.80;99.90;;;;;;10375657;28;20222;-79
2023/12/07 01:40:34;;;;;;;6.40;5.67;;;5.80;99.90;;;;;;10375674;28;20208;-79
2023/12/07 01:45:36;;;;;;;6.70;6.00;;;5.80;99.90;;;;;;10374967;28;20304;-79
2023/12/07 01:50:38;;;;;;;7.63;6.20;;;5.70;99.90;;;;;;10376210;28;20268;-78
2023/12/07 01:55:41;;;;;;;7.33;5.70;;;5.70;99.90;;;;;;10375247;28;20669;-79
2023/12/07 02:00:43;;;;;;;6.47;5.87;;;5.70;99.90;;;;;;10371402;28;20210;-80
2023/12/07 02:05:48;;;;;;;5.97;5.47;;;5.60;99.90;;;;;;10371966;28;20579;-81
2023/12/07 02:10:52;;;;;;;7.77;5.17;;;5.50;99.90;;;;;;10376115;28;20229;-80
2023/12/07 02:15:56;;;;;;;6.33;5.83;;;5.40;99.90;;;;;;10388059;28;20218;-79
2023/12/07 02:21:04;;;;;;;8.07;6.20;;;5.30;99.90;;;;;;10374340;28;20198;-79
2023/12/07 02:26:09;;;;;;;6.67;6.00;;;5.20;99.90;;;;;;10373867;28;20716;-79
2023/12/07 02:31:13;;;;;;;6.10;5.57;;;5.10;99.90;;;;;;10374461;28;20215;-80
2023/12/07 02:36:17;;;;;;;7.50;5.70;;;5.00;99.90;;;;;;10379350;28;20306;-80
2023/12/07 02:41:20;;;;;;;6.57;5.77;;;4.90;99.90;;;;;;10380899;28;20203;-79
2023/12/07 02:46:24;;;;;;;7.23;6.13;;;4.90;99.90;;;;;;10382077;28;20222;-79
2023/12/07 02:51:26;;;;;;;8.53;6.30;;;4.80;99.90;;;;;;10382591;28;20285;-79
2023/12/07 02:56:27;;;;;;;6.80;6.20;;;4.70;99.90;;;;;;10380755;28;20562;-78
2023/12/07 03:01:31;;;;;;;8.20;6.90;;;4.60;99.90;;;;;;10382286;28;20684;-78
2023/12/07 03:06:32;;;;;;;7.50;6.90;;;4.40;99.90;;;;;;10380549;28;20284;-78
2023/12/07 03:11:34;;;;;;;8.97;7.20;;;4.40;99.90;;;;;;10381734;28;20296;-78
2023/12/07 03:16:39;;;;;;;7.73;6.73;;;4.30;99.90;;;;;;10379693;28;20227;-78
2023/12/07 03:21:41;;;;;;;6.60;6.00;;;4.30;99.90;;;;;;10380412;28;20551;-78
2023/12/07 03:26:43;;;;;;;8.07;7.27;;;4.30;99.90;;;;;;10379865;28;20254;-78
2023/12/07 03:31:46;;;;;;;7.40;6.70;;;4.40;99.90;;;;;;10390504;28;20226;-79
2023/12/07 03:36:49;;;;;;;7.80;7.00;;;4.40;99.90;;;;;;10380871;28;20218;-78
2023/12/07 03:41:50;;;;;;;8.40;7.70;;;4.50;99.90;;;;;;10378236;28;20253;-78
2023/12/07 03:46:54;;;;;;;8.60;7.80;;;4.50;99.90;;;;;;10375448;28;20344;-79
2023/12/07 03:51:56;;;;;;;7.27;6.60;;;4.50;99.90;;;;;;10377938;28;20218;-79
2023/12/07 03:56:57;;;;;;;8.07;7.37;;;4.60;99.90;;;;;;10377644;28;20348;-79
2023/12/07 04:02:01;;;;;;;7.23;6.53;;;4.50;99.90;;;;;;10376426;28;20194;-79
2023/12/07 04:07:03;;;;;;;8.20;7.40;;;4.50;99.90;;;;;;10378296;28;20233;-79
2023/12/07 04:12:05;;;;;;;8.33;7.53;;;4.50;99.90;;;;;;10378859;28;20249;-79
2023/12/07 04:17:08;;;;;;;7.47;6.90;;;4.50;99.90;;;;;;10383307;28;20222;-79
2023/12/07 04:22:10;;;;;;;8.77;7.97;;;4.40;99.90;;;;;;10378361;28;20195;-79
2023/12/07 04:27:12;;;;;;;8.03;7.23;;;4.30;99.90;;;;;;10385206;28;20781;-79
2023/12/07 04:32:15;;;;;;;8.70;8.00;;;4.20;99.90;;;;;;10390152;28;20223;-79
2023/12/07 04:37:17;;;;;;;8.60;7.67;;;4.20;99.90;;;;;;10380225;28;20229;-79
2023/12/07 04:42:19;;;;;;;10.80;9.70;;;4.10;99.90;;;;;;10379496;28;20681;-77
2023/12/07 04:47:23;;;;;;;8.70;7.90;;;4.00;99.90;;;;;;10379750;28;20285;-79
2023/12/07 04:52:25;;;;;;;8.97;8.10;;;3.90;99.90;;;;;;10374491;28;20310;-78
2023/12/07 04:57:27;;;;;;;10.00;9.00;;;3.80;99.90;;;;;;10377155;28;20230;-78
2023/12/07 05:02:30;;;;;;;10.90;9.90;;;3.70;99.90;;;;;;10377390;28;20202;-78
2023/12/07 05:07:32;;;;;;;10.30;9.30;;;3.70;99.90;;;;;;10375195;28;20234;-80
2023/12/07 05:12:35;;;;;;;10.73;9.73;;;3.60;99.90;;;;;;10374319;28;20231;-79
2023/12/07 05:17:38;;;;;;;11.60;10.50;;;3.60;99.90;;;;;;10378182;28;20222;-78
2023/12/07 05:22:40;;;;;;;10.30;9.40;;;3.60;99.90;;;;;;10386376;28;20225;-78
2023/12/07 05:27:42;;;;;;;9.73;8.83;;;3.60;99.90;;;;;;10376713;28;20218;-79
2023/12/07 05:32:45;;;;;;;10.40;9.50;;;3.50;99.90;;;;;;10377055;28;20289;-79
2023/12/07 05:37:47;;;;;;;9.87;8.97;;;3.50;99.90;;;;;;10376747;28;20740;-79
2023/12/07 05:42:50;;;;;;;9.57;8.60;;;3.40;99.90;;;;;;10388286;28;20262;-80
2023/12/07 05:47:54;;;;;;;10.00;9.00;;;3.40;99.90;;;;;;10373331;28;20222;-80
2023/12/07 05:52:56;;;;;;;12.77;9.77;;;3.30;99.90;;;;;;10373990;28;20714;-80
2023/12/07 05:57:57;;;;;;;9.73;8.67;;;3.30;99.90;;;;;;10372235;28;20230;-80
2023/12/07 06:03:02;;;;;;;11.00;10.00;;;3.30;99.90;;;;;;10377173;28;20259;-79
2023/12/07 06:08:05;;;;;;;10.33;9.40;;;3.20;99.90;;;;;;10378076;28;20575;-79
2023/12/07 06:13:06;;;;;;;10.80;9.77;;;3.30;99.90;;;;;;10380749;28;20240;-80
2023/12/07 06:18:10;;;;;;;9.50;8.60;;;3.20;99.90;;;;;;10387251;28;20222;-79
2023/12/07 06:23:12;;;;;;;9.70;8.80;;;3.20;99.90;;;;;;10378720;28;20191;-80
2023/12/07 06:28:14;;;;;;;9.00;8.20;;;3.10;99.90;;;;;;10389321;28;20241;-80
2023/12/07 06:33:17;;;;;;;8.03;7.33;;;3.10;99.90;;;;;;10381787;28;20230;-76
2023/12/07 06:38:20;;;;;;;9.10;8.30;;;3.10;99.90;;;;;;10369804;28;20249;-79
2023/12/07 06:43:22;;;;;;;9.20;8.40;;;3.10;99.90;;;;;;10381022;28;20554;-79
2023/12/07 06:48:25;;;;;;;11.23;9.20;;;3.10;99.90;;;;;;10374019;28;20252;-78
2023/12/07 06:53:27;;;;;;;9.97;9.07;;;3.10;99.90;;;;;;10377316;28;20723;-78
2023/12/07 06:58:29;;;;;;;10.23;9.00;;;3.00;99.90;;;;;;10368113;28;20250;-78
2023/12/07 07:03:32;;;;;;;8.77;7.87;;;3.00;99.90;;;;;;10372454;28;20605;-79
2023/12/07 07:08:34;;;;;;;9.97;9.07;;;3.00;99.90;;;;;;10370994;28;20354;-74
2023/12/07 07:13:36;;;;;;;11.27;10.07;;;3.10;99.90;;;;;;10369715;28;20226;-77
2023/12/07 07:18:40;;;;;;;11.37;10.30;;;3.10;99.90;;;;;;10376420;28;20229;-78
2023/12/07 07:23:42;;;;;;;11.03;10.00;;;3.00;99.90;;;;;;10371113;28;20199;-78
2023/12/07 07:28:44;;;;;;;9.90;8.90;;;3.00;99.90;;;;;;10379295;28;20270;-79
2023/12/07 07:33:48;;;;;;;15.47;10.37;;;3.00;99.90;;;;;;10374067;28;20229;-78
2023/12/07 07:38:49;;;;;;;15.83;11.27;;;3.00;99.90;;;;;;10369852;28;20603;-78
2023/12/07 07:43:51;;;;;;;11.53;10.43;;;3.00;99.90;;;;;;10365668;28;20206;-78
2023/12/07 07:48:54;;;;;;;12.40;11.20;;;2.90;99.90;;;;;;10371181;28;20186;-78
2023/12/07 07:53:56;;;;;;;13.03;11.63;;;2.90;99.90;;;;;;10378163;28;20226;-77
2023/12/07 07:59:00;;;;;;;12.57;11.27;;;2.90;99.90;;;;;;10377435;28;20261;-79
2023/12/07 08:04:03;;;;;;;13.10;11.77;;;3.00;99.90;;;;;;10368125;28;20215;-78
2023/12/07 08:09:06;;;;;;;16.00;14.30;;;3.00;99.90;;;;;;10363137;28;20218;-78
2023/12/07 08:14:08;;;;;;;12.63;11.33;;;3.00;99.90;;;;;;10371374;28;20229;-78
2023/12/07 08:19:11;;;;;;;10.93;9.80;;;3.00;99.90;;;;;;10378136;28;20235;-78
2023/12/07 08:24:13;;;;;;;11.87;10.67;;;3.00;99.90;;;;;;10381714;28;20341;-79
2023/12/07 08:29:15;;;;;;;13.57;12.17;;;2.90;99.90;;;;;;10372728;28;20209;-78
2023/12/07 08:34:18;;;;;;;13.77;12.40;;;3.00;99.90;;;;;;10370325;28;20635;-79
2023/12/07 08:39:20;;;;;;;11.67;10.67;;;3.00;99.90;;;;;;10367080;28;20202;-80
2023/12/07 08:44:22;;;;;;;14.30;12.77;;;3.00;99.90;;;;;;10364440;28;21282;-80
2023/12/07 08:49:26;;;;;;;16.77;12.40;;;3.10;99.90;;;;;;10374551;28;20202;-79
2023/12/07 08:54:28;;;;;;;12.03;10.83;;;3.20;99.90;;;;;;10379557;28;20248;-80
2023/12/07 08:59:30;;;;;;;12.90;11.53;;;3.30;99.90;;;;;;10384622;28;20199;-80
2023/12/07 09:04:33;;;;;;;11.50;10.30;;;3.40;99.90;;;;;;10377185;28;20222;-80
2023/12/07 09:09:35;;;;;;;11.03;9.90;;;3.50;99.90;;;;;;10370921;28;20403;-80
2023/12/07 09:14:37;;;;;;;13.37;11.97;;;3.60;99.90;;;;;;10375204;28;20226;-80
2023/12/07 09:19:40;;;;;;;12.97;11.63;;;3.60;99.90;;;;;;10371396;28;20221;-80
2023/12/07 09:24:42;;;;;;;13.23;11.90;;;3.70;99.90;;;;;;10372090;28;20583;-80
2023/12/07 09:29:44;;;;;;;13.87;12.47;;;3.70;99.90;;;;;;10387123;28;20659;-80
2023/12/07 09:34:51;;;;;;;15.07;12.47;;;3.80;99.90;;;;;;10391954;28;20313;-80
2023/12/07 09:39:52;;;;;;;14.27;12.80;;;3.90;99.90;;;;;;10375178;28;20203;-76
2023/12/07 09:44:55;;;;;;;15.17;13.50;;;4.00;99.90;;;;;;10363546;28;20316;-80
2023/12/07 09:49:59;;;;;;;15.57;13.97;;;4.10;99.90;;;;;;10369905;28;20206;-78
2023/12/07 09:55:03;;;;;;;18.50;12.60;;;4.20;99.90;;;;;;10359805;28;20223;-78
2023/12/07 10:00:09;;;;;;;15.07;13.30;;;4.30;99.90;;;;;;10369476;28;20195;-78
2023/12/07 10:05:16;;;;;;;16.03;13.00;;;4.30;99.90;;;;;;10362327;28;20600;-80
2023/12/07 10:10:19;;;;;;;18.10;13.23;;;4.40;99.90;;;;;;10369449;28;20214;-79
2023/12/07 10:15:22;;;;;;;16.27;13.57;;;4.50;99.90;;;;;;10373447;28;20636;-80
2023/12/07 10:20:27;;;;;;;11.00;9.93;;;4.50;99.90;;;;;;10378452;28;20281;-80
2023/12/07 10:25:30;;;;;;;11.53;9.13;;;4.50;99.90;;;;;;10382563;28;20642;-80
2023/12/07 10:30:32;;;;;;;8.30;7.50;;;4.60;99.90;;;;;;10372719;28;20219;-79
2023/12/07 10:35:39;;;;;;;6.87;6.23;;;4.70;99.90;;;;;;10367728;28;20273;-79
2023/12/07 10:40:42;;;;;;;6.90;6.30;;;4.80;99.90;;;;;;10366237;28;20308;-79
2023/12/07 10:45:45;;;;;;;8.20;6.90;;;4.80;99.90;;;;;;10365332;28;20790;-79
2023/12/07 10:50:54;;;;;;;8.57;7.67;;;4.80;99.90;;;;;;10367012;28;20640;-79
2023/12/07 10:55:57;;;;;;;9.80;8.80;;;4.90;99.90;;;;;;10370835;28;20228;-77
2023/12/07 11:01:01;;;;;;;7.60;6.90;;;5.00;99.90;;;;;;10377581;28;20261;-80
2023/12/07 11:06:05;;;;;;;4.70;4.30;;;5.00;99.90;;;;;;10369370;28;20665;-80
2023/12/07 11:11:13;;;;;;;4.87;4.10;;;5.00;99.90;;;;;;10380602;28;20229;-78
2023/12/07 11:16:15;;;;;;;3.93;3.63;;;5.10;99.90;;;;;;10379337;28;20707;-81
2023/12/07 11:21:19;;;;;;;6.00;3.30;;;5.20;99.90;;;;;;10379993;28;20201;-80
2023/12/07 11:26:21;;;;;;;3.10;2.90;;;5.30;99.90;;;;;;10377097;28;20688;-80
2023/12/07 11:31:23;;;;;;;4.60;3.20;;;5.30;99.90;;;;;;10370709;28;20804;-80
2023/12/07 11:36:26;;;;;;;3.87;3.57;;;5.40;99.90;;;;;;10361630;28;20364;-79
2023/12/07 11:41:30;;;;;;;5.43;4.47;;;5.50;99.90;;;;;;10370533;28;20260;-80
2023/12/07 11:46:34;;;;;;;4.93;4.00;;;5.50;99.90;;;;;;10364994;28;20230;-81
2023/12/07 11:51:38;;;;;;;4.73;4.30;;;5.50;99.90;;;;;;10365167;28;20798;-80
2023/12/07 11:56:40;;;;;;;5.30;4.90;;;5.60;99.90;;;;;;10373611;28;20290;-80
2023/12/07 12:01:48;;;;;;;5.13;4.50;;;5.70;99.90;;;;;;10375356;28;20203;-80
2023/12/07 12:06:51;;;;;;;6.07;5.03;;;5.70;99.90;;;;;;10374685;28;21091;-81
2023/12/07 12:11:53;;;;;;;6.50;5.77;;;5.70;99.90;;;;;;10381972;28;20218;-79
2023/12/07 12:16:58;;;;;;;8.80;5.50;;;5.80;99.90;;;;;;10379108;28;20576;-80
2023/12/07 12:22:03;;;;;;;6.33;5.00;;;5.80;99.90;;;;;;10406404;28;20226;-78
2023/12/07 12:27:06;;;;;;;5.40;4.90;;;5.90;99.90;;;;;;10387314;28;20237;-80
2023/12/07 12:32:10;;;;;;;5.43;5.00;;;5.90;99.90;;;;;;10393959;28;20227;-81
2023/12/07 12:37:13;;;;;;;7.33;6.73;;;5.90;99.90;;;;;;10378821;28;20246;-80
2023/12/07 12:42:15;;;;;;;6.53;5.93;;;5.90;99.90;;;;;;10378295;28;20194;-80
2023/12/07 12:47:17;;;;;;;6.93;5.83;;;5.90;99.90;;;;;;10377579;28;20222;-80
2023/12/07 12:52:21;;;;;;;7.33;6.67;;;6.00;99.90;;;;;;10372558;28;20229;-79
2023/12/07 12:57:24;;;;;;;7.47;6.77;;;5.90;99.90;;;;;;10381519;28;20215;-80
2023/12/07 13:02:26;;;;;;;7.00;5.90;;;5.90;99.90;;;;;;10368013;28;20195;-80
2023/12/07 13:07:30;;;;;;;6.80;5.40;;;6.00;99.90;;;;;;10368970;28;20226;-80
2023/12/07 13:12:35;;;;;;;6.33;5.50;;;6.00;99.90;;;;;;10375238;28;20202;-81
2023/12/07 13:17:38;;;;;;;7.73;6.33;;;6.00;99.90;;;;;;10376740;28;20223;-78
2023/12/07 13:22:43;;;;;;;9.43;6.60;;;6.00;99.90;;;;;;10372889;28;20203;-81
2023/12/07 13:27:45;;;;;;;8.77;6.67;;;6.00;99.90;;;;;;10383053;28;20301;-79
2023/12/07 13:32:49;;;;;;;7.93;7.23;;;6.00;99.90;;;;;;10372569;28;20214;-80
2023/12/07 13:37:53;;;;;;;8.40;7.60;;;6.00;99.90;;;;;;10379856;28;20264;-80
2023/12/07 13:42:55;;;;;;;9.50;7.30;;;6.00;99.90;;;;;;10369974;28;20198;-77
2023/12/07 13:47:58;;;;;;;6.10;5.50;;;5.90;99.90;;;;;;10372889;28;20233;-80
2023/12/07 13:53:03;;;;;;;6.70;6.10;;;6.00;99.90;;;;;;10380469;28;20569;-81
2023/12/07 13:58:06;;;;;;;7.47;6.73;;;6.00;99.90;;;;;;10369624;28;20215;-80
2023/12/07 14:03:08;;;;;;;4.60;3.93;;;5.90;99.90;;;;;;10382650;28;20203;-81
2023/12/07 14:08:13;;;;;;;4.93;4.37;;;6.00;99.90;;;;;;10382044;28;20233;-80
2023/12/07 14:13:17;;;;;;;5.90;5.40;;;6.00;99.90;;;;;;10382167;28;20229;-78
2023/12/07 14:18:19;;;;;;;4.77;4.07;;;6.00;99.90;;;;;;10395302;28;20233;-80
2023/12/07 14:23:23;;;;;;;3.47;3.20;;;6.00;99.90;;;;;;10370962;28;20711;-79
2023/12/07 14:28:28;;;;;;;3.90;3.60;;;6.00;99.90;;;;;;10363878;28;20222;-80
2023/12/07 14:33:30;;;;;;;4.47;4.07;;;6.00;99.90;;;;;;10379615;28;20644;-81
2023/12/07 14:38:34;;;;;;;4.80;4.07;;;6.00;99.90;;;;;;10380470;28;20289;-80
2023/12/07 14:43:36;;;;;;;6.57;4.63;;;6.00;99.90;;;;;;10376206;28;20284;-80
2023/12/07 14:48:38;;;;;;;4.70;4.30;;;5.90;99.90;;;;;;10377567;28;20229;-80
2023/12/07 14:53:42;;;;;;;4.80;4.30;;;5.90;99.90;;;;;;10378102;28;20646;-80
2023/12/07 14:58:44;;;;;;;6.90;5.70;;;5.80;99.90;;;;;;10379301;28;20614;-80
2023/12/07 15:03:48;;;;;;;6.27;4.70;;;5.70;99.90;;;;;;10384659;28;20551;-80
2023/12/07 15:08:52;;;;;;;4.30;3.90;;;5.60;99.90;;;;;;10378014;28;20207;-79
2023/12/07 15:13:55;;;;;;;5.50;4.47;;;5.40;99.90;;;;;;10382789;28;20672;-80
2023/12/07 15:18:57;;;;;;;4.40;3.97;;;5.20;99.90;;;;;;10384589;28;20335;-80
2023/12/07 15:24:01;;;;;;;5.73;5.10;;;5.10;99.90;;;;;;10381259;28;20226;-79
2023/12/07 15:29:03;;;;;;;9.07;6.60;;;4.90;99.90;;;;;;10401377;28;20612;-79
2023/12/07 15:34:09;;;;;;;7.07;5.73;;;4.80;99.90;;;;;;10375580;28;20280;-79
2023/12/07 15:39:13;;;;;;;6.70;4.70;;;4.70;99.90;;;;;;10375329;28;20641;-79
2023/12/07 15:44:15;;;;;;;8.07;6.50;;;4.60;99.90;;;;;;10375103;28;21200;-79
2023/12/07 15:49:18;;;;;;;4.73;4.33;;;4.50;99.90;;;;;;10370408;28;20211;-79
2023/12/07 15:54:22;;;;;;;6.10;5.43;;;4.40;99.90;;;;;;10375327;28;20230;-79
2023/12/07 15:59:24;;;;;;;7.00;4.60;;;4.30;99.90;;;;;;10371469;28;20517;-78
2023/12/07 16:04:26;;;;;;;3.90;3.60;;;4.30;99.90;;;;;;10370112;28;20285;-80
2023/12/07 16:09:30;;;;;;;5.23;4.67;;;4.20;99.90;;;;;;10368854;28;20407;-81
2023/12/07 16:14:32;;;;;;;5.77;5.13;;;4.20;99.90;;;;;;10380831;28;20238;-79
2023/12/07 16:19:35;;;;;;;5.73;5.23;;;4.10;99.90;;;;;;10379945;28;20252;-80
2023/12/07 16:24:38;;;;;;;8.50;5.70;;;4.00;99.90;;;;;;10368321;28;20276;-78
2023/12/07 16:29:41;;;;;;;7.30;5.97;;;3.90;99.90;;;;;;10359918;28;20204;-79
2023/12/07 16:34:45;;;;;;;8.07;6.80;;;3.90;99.90;;;;;;10365823;28;20248;-80
2023/12/07 16:39:49;;;;;;;6.67;5.67;;;3.90;99.90;;;;;;10367057;28;20206;-80
2023/12/07 16:44:54;;;;;;;8.90;6.87;;;3.90;99.90;;;;;;10363296;28;21106;-80
2023/12/07 16:49:56;;;;;;;8.40;7.60;;;3.80;99.90;;;;;;10370472;28;20686;-79
2023/12/07 16:55:00;;;;;;;7.47;6.63;;;3.80;99.90;;;;;;10367675;28;20237;-80
2023/12/07 17:00:02;;;;;;;8.23;7.40;;;3.70;99.90;;;;;;10364425;28;20253;-80
2023/12/07 17:05:05;;;;;;;10.10;7.07;;;3.80;99.90;;;;;;10371001;28;20233;-80
2023/12/07 17:10:10;;;;;;;8.97;8.07;;;3.70;99.90;;;;;;10372540;28;20690;-80
2023/12/07 17:15:13;;;;;;;8.87;8.07;;;3.70;99.90;;;;;;10373004;28;20233;-80
2023/12/07 17:20:15;;;;;;;11.50;9.10;;;3.60;99.90;;;;;;10373458;28;20207;-78
2023/12/07 17:25:19;;;;;;;11.00;9.90;;;3.60;99.90;;;;;;10368673;28;20218;-79
2023/12/07 17:30:23;;;;;;;13.00;10.07;;;3.50;99.90;;;;;;10356873;28;20207;-78
2023/12/07 17:35:25;;;;;;;14.73;12.80;;;3.50;99.90;;;;;;10372751;28;20231;-78
2023/12/07 17:40:29;;;;;;;12.40;10.73;;;3.50;99.90;;;;;;10366945;28;20202;-79
2023/12/07 17:45:32;;;;;;;11.60;10.00;;;3.10;99.90;;;;;;10364983;28;20222;-79
2023/12/07 17:50:34;;;;;;;11.20;10.10;;;3.40;99.90;;;;;;10366591;28;20221;-79
2023/12/07 17:55:38;;;;;;;10.50;9.50;;;3.50;99.90;;;;;;10367183;28;20214;-74
2023/12/07 18:00:41;;;;;;;10.83;9.80;;;3.50;99.90;;;;;;10360212;28;20202;-79
2023/12/07 18:05:43;;;;;;;13.80;11.13;;;3.50;99.90;;;;;;10364599;28;20218;-79
2023/12/07 18:10:47;;;;;;;12.27;10.80;;;3.50;99.90;;;;;;10374335;28;20206;-77
2023/12/07 18:15:50;;;;;;;16.40;14.70;;;3.50;99.90;;;;;;10379378;28;20268;-76
2023/12/07 18:20:52;;;;;;;25.43;20.70;;;3.40;99.90;;;;;;10373249;28;20227;-77
2023/12/07 18:25:56;;;;;;;19.27;16.93;;;3.40;99.90;;;;;;10372494;28;20272;-76
2023/12/07 18:30:58;;;;;;;17.50;14.20;;;3.30;99.90;;;;;;10371886;28;20272;-76
2023/12/07 18:36:01;;;;;;;23.13;19.70;;;3.30;99.90;;;;;;10368275;28;20226;-77
2023/12/07 18:41:05;;;;;;;28.30;24.00;;;3.30;99.90;;;;;;10378449;28;20202;-76
2023/12/07 18:46:08;;;;;;;41.53;30.30;;;3.20;99.90;;;;;;10371207;28;20678;-77
2023/12/07 18:51:10;;;;;;;17.00;13.80;;;3.20;99.90;;;;;;10377715;28;20712;-77
2023/12/07 18:56:17;;;;;;;21.50;13.73;;;3.10;99.90;;;;;;10369502;28;20238;-77
2023/12/07 19:01:19;;;;;;;13.13;11.93;;;3.10;99.90;;;;;;10373349;28;20703;-77
2023/12/07 19:06:21;;;;;;;13.67;11.70;;;3.10;99.90;;;;;;10378200;28;20659;-78
2023/12/07 19:11:25;;;;;;;15.60;13.57;;;3.10;99.90;;;;;;10370498;28;20712;-78
2023/12/07 19:16:27;;;;;;;16.20;14.47;;;3.10;99.90;;;;;;10369574;28;20230;-79
2023/12/07 19:21:30;;;;;;;19.53;16.93;;;3.00;99.90;;;;;;10372291;28;20233;-78
2023/12/07 19:26:33;;;;;;;18.80;16.60;;;2.90;99.90;;;;;;10372922;28;20222;-77
2023/12/07 19:31:38;;;;;;;24.60;17.63;;;3.00;99.90;;;;;;10373425;28;20221;-78
2023/12/07 19:36:41;;;;;;;21.33;18.87;;;2.90;99.90;;;;;;10366411;28;20265;-79
2023/12/07 19:41:45;;;;;;;22.37;17.87;;;2.90;99.90;;;;;;10367763;28;20243;-78
2023/12/07 19:46:48;;;;;;;44.07;35.70;;;2.90;99.90;;;;;;10368546;28;20219;-77
2023/12/07 19:51:50;;;;;;;17.40;14.80;;;2.90;99.90;;;;;;10367203;28;20198;-77
2023/12/07 19:56:54;;;;;;;15.30;13.77;;;2.90;99.90;;;;;;10367578;28;20281;-80
2023/12/07 20:01:57;;;;;;;20.70;18.50;;;2.90;99.90;;;;;;10371999;28;20203;-80
2023/12/07 20:06:59;;;;;;;20.17;15.67;;;3.00;99.90;;;;;;10368995;28;20234;-80
2023/12/07 20:12:03;;;;;;;20.73;15.70;;;3.10;99.90;;;;;;10368346;28;20198;-80
2023/12/07 20:17:06;;;;;;;17.33;13.40;;;3.10;99.90;;;;;;10366545;28;20215;-78
2023/12/07 20:22:10;;;;;;;15.17;13.30;;;3.20;99.90;;;;;;10387544;28;20210;-78
2023/12/07 20:27:14;;;;;;;17.67;13.67;;;3.30;99.90;;;;;;10371554;28;20264;-79
2023/12/07 20:32:16;;;;;;;17.63;15.03;;;3.40;99.90;;;;;;10372270;28;20567;-78
2023/12/07 20:37:19;;;;;;;16.80;13.00;;;3.40;99.90;;;;;;10371350;28;20230;-79
2023/12/07 20:42:22;;;;;;;15.77;12.47;;;3.50;99.90;;;;;;10370853;28;20261;-76
2023/12/07 20:47:27;;;;;;;12.63;11.03;;;3.60;99.90;;;;;;10366353;28;20375;-78
2023/12/07 20:52:31;;;;;;;12.73;11.43;;;3.70;99.90;;;;;;10369642;28;20206;-77
2023/12/07 20:57:35;;;;;;;11.27;10.13;;;3.70;99.90;;;;;;10367816;28;20303;-77
2023/12/07 21:02:38;;;;;;;12.57;11.37;;;3.80;99.90;;;;;;10366009;28;20209;-77
2023/12/07 21:07:43;;;;;;;13.47;12.00;;;3.80;99.90;;;;;;10365163;28;20285;-78
2023/12/07 21:12:50;;;;;;;14.30;11.60;;;3.90;99.90;;;;;;10369185;28;20728;-78
2023/12/07 21:17:52;;;;;;;11.50;10.30;;;3.90;99.90;;;;;;10368256;28;20222;-78
2023/12/07 21:22:54;;;;;;;11.93;10.67;;;4.00;99.90;;;;;;10369243;28;20237;-75
2023/12/07 21:27:58;;;;;;;10.20;9.20;;;4.10;99.90;;;;;;10369813;28;20234;-78
2023/12/07 21:33:00;;;;;;;11.70;9.40;;;4.10;99.90;;;;;;10375458;28;20249;-79
2023/12/07 21:38:03;;;;;;;11.03;9.93;;;4.20;99.90;;;;;;10356541;28;20222;-78
2023/12/07 21:43:07;;;;;;;11.07;9.97;;;4.20;99.90;;;;;;10374480;28;20313;-79
2023/12/07 21:48:09;;;;;;;10.20;9.20;;;4.20;99.90;;;;;;10374475;28;20226;-78
2023/12/07 21:53:11;;;;;;;10.60;9.60;;;4.20;99.90;;;;;;10370893;28;20218;-78
2023/12/07 21:58:16;;;;;;;12.17;10.27;;;4.20;99.90;;;;;;10370094;28;20226;-79
2023/12/07 22:03:18;;;;;;;10.30;9.30;;;4.20;99.90;;;;;;10377854;28;20206;-78
2023/12/07 22:08:20;;;;;;;10.70;9.60;;;4.20;99.90;;;;;;10365665;28;20234;-79
2023/12/07 22:13:24;;;;;;;10.00;9.00;;;4.20;99.90;;;;;;10371080;28;20615;-79
2023/12/07 22:18:27;;;;;;;11.40;10.20;;;4.20;99.90;;;;;;10372079;28;20219;-78
2023/12/07 22:23:29;;;;;;;11.20;10.10;;;4.20;99.90;;;;;;10375570;28;20203;-79
2023/12/07 22:28:33;;;;;;;12.57;10.33;;;4.20;99.90;;;;;;10373393;28;20222;-78
2023/12/07 22:33:35;;;;;;;10.17;9.20;;;4.30;99.90;;;;;;10368377;28;20206;-78
2023/12/07 22:38:37;;;;;;;9.80;8.90;;;4.30;99.90;;;;;;10369251;28;20562;-80
2023/12/07 22:43:41;;;;;;;10.80;9.70;;;4.30;99.90;;;;;;10370517;28;20194;-79
2023/12/07 22:48:44;;;;;;;10.60;9.50;;;4.30;99.90;;;;;;10368925;28;20214;-76
2023/12/07 22:53:46;;;;;;;12.30;10.87;;;4.30;99.90;;;;;;10383923;28;20769;-79
2023/12/07 22:58:50;;;;;;;10.77;9.70;;;4.30;99.90;;;;;;10380496;28;20209;-79
2023/12/07 23:03:53;;;;;;;10.13;8.90;;;;;;;;;;10377509;28;20199;-78
2023/12/07 23:08:55;;;;;;;11.40;10.00;;;;;;;;;;10375747;28;20207;-77
2023/12/07 23:13:59;;;;;;;10.80;9.80;;;;;;;;;;10375246;28;20217;-79
2023/12/07 23:19:03;;;;;;;10.57;9.27;;;;;;;;;;10381744;28;20205;-77
2023/12/07 23:24:06;;;;;;;10.77;9.80;;;4.30;99.90;;;;;;10378308;28;20215;-77
2023/12/07 23:29:10;;;;;;;10.27;9.37;;;4.10;99.90;;;;;;10375424;28;20207;-77
2023/12/07 23:34:13;;;;;;;11.13;10.07;;;4.10;99.90;;;;;;10373172;28;20222;-79
2023/12/07 23:39:15;;;;;;;10.90;9.37;;;4.20;99.90;;;;;;10376816;28;20206;-79
2023/12/07 23:44:19;;;;;;;13.70;10.73;;;4.20;99.90;;;;;;10391074;28;20229;-79
2023/12/07 23:49:21;;;;;;;11.10;10.00;;;4.20;99.90;;;;;;10373431;28;20210;-78
2023/12/07 23:54:24;;;;;;;11.87;10.73;;;4.20;99.90;;;;;;10378752;28;20226;-78
2023/12/07 23:59:28;;;;;;;12.93;11.63;;;4.30;99.90;;;;;;10376613;28;20203;-79
